Time;durP1;ratioP1;P1;durP2;ratioP2;P2;SDS_P1;SDS_P2;PMS_P1;PMS_P2;Temp;Humidity;BMP_temperature;BMP_pressure;BME280_temperature;BME280_humidity;BME280_pressure;Samples;Min_cycle;Max_cycle;Signal;HPM_P1;HPM_P2
2021/08/27 00:00:20;;;;;;;;;;;;;;;-142.75;73.18;77247.50;4990227;28;19924;-76
2021/08/27 00:02:45;;;;;;;;;;;;;;;-142.75;73.17;77257.34;5008159;28;19996;-77
2021/08/27 00:05:11;;;;;;;;;;;;;;;-142.75;73.24;77263.25;5008231;28;20287;-77
2021/08/27 00:07:36;;;;;;;;;;;;;;;-142.75;73.46;77263.25;4991370;28;20435;-77
2021/08/27 00:10:02;;;;;;;;;;;;;;;-142.75;73.67;77269.16;5016259;28;20371;-78
2021/08/27 00:12:27;;;;;;;;;;;;;;;-142.75;73.68;77271.13;5007929;28;19920;-77
2021/08/27 00:14:52;;;;;;;;;;;;;;;-142.75;73.69;77269.16;4991070;28;19917;-77
2021/08/27 00:17:17;;;;;;;;;;;;;;;-142.75;73.69;77267.19;5011195;28;19939;-77
2021/08/27 00:19:42;;;;;;;;;;;;;;;-142.75;73.84;77277.03;4993210;28;20022;-76
2021/08/27 00:22:07;;;;;;;;;;;;;;;-142.75;73.91;77273.09;5010813;28;19921;-77
2021/08/27 00:24:33;;;;;;;;;;;;;;;-142.75;73.86;77275.06;5011053;28;19917;-76
2021/08/27 00:26:58;;;;;;;;;;;;;;;-142.75;73.95;77279.00;5010948;28;20500;-77
2021/08/27 00:29:23;;;;;;;;;;;;;;;-142.75;74.06;77273.09;4991870;28;19932;-77
2021/08/27 00:31:48;;;;;;;;;;;;;;;-142.75;73.94;77275.06;5010616;28;20003;-77
2021/08/27 00:34:14;;;;;;;;;;;;;;;-142.75;74.04;77280.97;4993222;28;20646;-77
2021/08/27 00:36:39;;;;;;;;;;;;;;;-142.75;74.17;77271.13;5010662;28;19927;-77
2021/08/27 00:39:04;;;;;;;;;;;;;;;-142.75;73.96;77282.94;4993821;28;19958;-77
2021/08/27 00:41:29;;;;;;;;;;;;;;;-142.75;74.14;77280.97;5013248;28;20056;-77
2021/08/27 00:43:54;;;;;;;;;;;;;;;-142.75;74.14;77280.97;5030396;28;20282;-77
2021/08/27 00:46:20;;;;;;;;;;;;;;;-142.75;74.11;77286.88;5030392;28;20386;-77
2021/08/27 00:48:45;;;;;;;;;;;;;;;-142.75;74.25;77292.78;5030291;28;19996;-77
2021/08/27 00:51:10;;;;;;;;;;;;;;;-142.75;74.54;77290.81;5012195;28;19912;-76
2021/08/27 00:53:36;;;;;;;;;;;;;;;-142.75;74.57;77298.69;5012741;28;20412;-77
2021/08/27 00:56:01;;;;;;;;;;;;;;;-142.75;74.59;77298.69;5012472;28;19916;-77
2021/08/27 00:58:26;;;;;;;;;;;;;;;-142.75;74.59;77292.78;5029907;28;20374;-77
2021/08/27 01:00:52;;;;;;;;;;;;;;;-142.75;74.63;77284.91;5029861;28;19925;-77
2021/08/27 01:03:18;;;;;;;;;;;;;;;-142.75;74.44;77282.94;5030636;28;19920;-77
2021/08/27 01:05:45;;;;;;;;;;;;;;;-142.75;74.47;77290.81;5012540;28;19917;-77
2021/08/27 01:08:12;;;;;;;;;;;;;;;-142.75;74.53;77286.88;5012706;28;19958;-77
2021/08/27 01:10:44;;;;;;;;;;;;;;;-142.75;74.68;77294.75;5029075;28;19913;-77
2021/08/27 01:13:11;;;;;;;;;;;;;;;-142.75;74.76;77288.84;5029924;28;19938;-77
2021/08/27 01:15:55;;;;;;;;;;;;;;;-142.75;74.90;77302.63;5012062;28;19924;-76
2021/08/27 01:18:39;;;;;;;;;;;;;;;-142.75;75.10;77302.63;5029364;28;20048;-77
2021/08/27 01:21:16;;;;;;;;;;;;;;;-142.75;75.15;77292.78;5010751;28;19921;-77
2021/08/27 01:23:45;;;;;;;;;;;;;;;-142.75;75.16;77286.88;5027280;28;20275;-77
2021/08/27 01:26:13;;;;;;;;;;;;;;;-142.75;75.18;77302.63;5029134;28;20297;-77
2021/08/27 01:28:41;;;;;;;;;;;;;;;-142.75;75.43;77298.69;5029364;28;19913;-77
2021/08/27 01:31:15;;;;;;;;;;;;;;;-142.75;75.41;77304.59;5010414;28;19925;-76
2021/08/27 01:33:44;;;;;;;;;;;;;;;-142.75;75.78;77304.59;5002761;28;20347;-77
2021/08/27 01:36:09;;;;;;;;;;;;;;;-142.75;75.81;77302.63;5020620;28;19952;-77
2021/08/27 01:38:36;;;;;;;;;;;;;;;-142.75;76.02;77310.50;5014295;28;19914;-77
2021/08/27 01:41:04;;;;;;;;;;;;;;;-142.75;76.09;77310.50;5008765;28;20396;-78
2021/08/27 01:43:29;;;;;;;;;;;;;;;-142.75;76.18;77310.50;5009598;28;19914;-77
2021/08/27 01:45:57;;;;;;;;;;;;;;;-142.75;75.93;77306.56;4992155;28;19913;-77
2021/08/27 01:48:24;;;;;;;;;;;;;;;-142.75;75.98;77318.38;5009472;28;19920;-77
2021/08/27 01:50:54;;;;;;;;;;;;;;;-142.75;76.21;77324.28;5009048;28;19928;-77
2021/08/27 01:53:19;;;;;;;;;;;;;;;-142.75;76.49;77330.19;5009314;28;20004;-77
2021/08/27 01:55:44;;;;;;;;;;;;;;;-142.75;76.60;77338.06;5009859;28;19963;-77
2021/08/27 01:58:10;;;;;;;;;;;;;;;-142.75;76.10;77316.41;4991728;28;19983;-77
2021/08/27 02:00:35;;;;;;;;;;;;;;;-142.75;76.15;77318.38;4991352;28;19977;-77
2021/08/27 02:03:01;;;;;;;;;;;;;;;-142.75;76.02;77328.22;5009014;28;19925;-77
2021/08/27 02:05:26;;;;;;;;;;;;;;;-142.75;76.12;77330.19;4991692;28;19920;-77
2021/08/27 02:07:53;;;;;;;;;;;;;;;-142.75;76.43;77342.00;5009289;28;19958;-76
2021/08/27 02:10:18;;;;;;;;;;;;;;;-142.75;76.69;77342.00;5017930;22;20578;-77
2021/08/27 02:12:43;;;;;;;;;;;;;;;-142.75;76.92;77347.91;5000912;28;20005;-77
2021/08/27 02:15:09;;;;;;;;;;;;;;;-142.75;76.83;77357.75;5092618;28;19920;-78
2021/08/27 02:17:34;;;;;;;;;;;;;;;-142.75;76.92;77357.75;5062416;28;19913;-77
2021/08/27 02:20:00;;;;;;;;;;;;;;;-142.75;76.95;77359.72;5096931;27;19963;-77
2021/08/27 02:22:27;;;;;;;;;;;;;;;-142.75;77.03;77365.63;5008584;28;20294;-77
2021/08/27 02:24:55;;;;;;;;;;;;;;;-142.75;77.10;77353.81;5077859;28;19914;-77
2021/08/27 02:27:21;;;;;;;;;;;;;;;-142.75;76.78;77353.81;5096821;28;19920;-78
2021/08/27 02:29:48;;;;;;;;;;;;;;;-142.75;76.67;77357.75;5076943;28;20260;-77
2021/08/27 02:32:14;;;;;;;;;;;;;;;-142.75;76.67;77353.81;5015476;28;19951;-77
2021/08/27 02:34:41;;;;;;;;;;;;;;;-142.75;76.42;77353.81;5076249;28;20576;-77
2021/08/27 02:37:09;;;;;;;;;;;;;;;-142.75;76.54;77351.84;5082693;28;19914;-77
2021/08/27 02:39:34;;;;;;;;;;;;;;;-142.75;76.68;77365.63;5015125;28;19923;-77
2021/08/27 02:42:00;;;;;;;;;;;;;;;-142.75;76.69;77361.69;5027508;28;20004;-77
2021/08/27 02:44:25;;;;;;;;;;;;;;;-142.75;76.69;77357.75;5096201;28;19913;-77
2021/08/27 02:46:51;;;;;;;;;;;;;;;-142.75;76.59;77363.66;5096108;28;19913;-77
2021/08/27 02:49:16;;;;;;;;;;;;;;;-142.75;76.61;77361.69;5095909;28;19936;-76
2021/08/27 02:51:45;;;;;;;;;;;;;;;-142.75;76.69;77361.69;5024331;28;19958;-78
2021/08/27 02:54:14;;;;;;;;;;;;;;;-142.75;76.70;77355.78;5092754;28;19913;-77
2021/08/27 02:56:40;;;;;;;;;;;;;;;-142.75;76.49;77353.81;5077013;28;19917;-77
2021/08/27 02:59:11;;;;;;;;;;;;;;;-142.75;76.33;77355.78;5086260;28;20006;-77
2021/08/27 03:01:37;;;;;;;;;;;;;;;-142.75;76.22;77355.78;5077226;28;19971;-77
2021/08/27 03:04:06;;;;;;;;;;;;;;;-142.75;76.31;77365.63;5019246;28;19914;-77
2021/08/27 03:06:35;;;;;;;;;;;;;;;-142.75;76.41;77375.47;5091719;28;19949;-78
2021/08/27 03:09:04;;;;;;;;;;;;;;;-142.75;76.57;77385.31;5012177;28;19913;-77
2021/08/27 03:11:31;;;;;;;;;;;;;;;-142.75;76.83;77385.31;5018329;28;19956;-77
2021/08/27 03:14:02;;;;;;;;;;;;;;;-142.75;76.55;77377.44;5020669;28;19913;-76
2021/08/27 03:16:28;;;;;;;;;;;;;;;-142.75;76.54;77389.25;5007820;28;19921;-77
2021/08/27 03:18:58;;;;;;;;;;;;;;;-142.75;76.54;77391.22;5092511;28;19920;-77
2021/08/27 03:21:36;;;;;;;;;;;;;;;-142.75;76.62;77401.06;5091987;28;20340;-77
2021/08/27 03:24:06;;;;;;;;;;;;;;;-142.75;76.86;77408.94;5008007;28;19944;-77
2021/08/27 03:26:32;;;;;;;;;;;;;;;-142.75;77.00;77416.81;5018207;28;19938;-77
2021/08/27 03:28:59;;;;;;;;;;;;;;;-142.75;77.13;77422.72;5027602;28;19939;-77
2021/08/27 03:31:25;;;;;;;;;;;;;;;-142.75;77.16;77420.75;5095146;28;19920;-79
2021/08/27 03:33:51;;;;;;;;;;;;;;;-142.75;77.30;77424.69;5095206;28;19920;-77
2021/08/27 03:36:16;;;;;;;;;;;;;;;-142.75;77.24;77428.63;5027203;28;19913;-77
2021/08/27 03:38:42;;;;;;;;;;;;;;;-142.75;77.19;77428.63;5027784;28;19921;-77
2021/08/27 03:41:07;;;;;;;;;;;;;;;-142.75;77.40;77428.63;5074781;28;19917;-76
2021/08/27 03:43:33;;;;;;;;;;;;;;;-142.75;77.50;77389.25;5075246;28;19991;-76
2021/08/27 03:45:59;;;;;;;;;;;;;;;-142.75;77.38;77406.97;5092244;28;19957;-77
2021/08/27 03:48:24;;;;;;;;;;;;;;;-142.75;77.26;77418.78;5007415;28;20389;-77
2021/08/27 03:50:51;;;;;;;;;;;;;;;-142.75;77.35;77410.91;5012555;28;19913;-77
2021/08/27 03:53:17;;;;;;;;;;;;;;;-142.75;77.43;77414.84;5014018;28;20363;-77
2021/08/27 03:55:43;;;;;;;;;;;;;;;-142.75;77.43;77416.81;5080569;28;19913;-77
2021/08/27 03:58:11;;;;;;;;;;;;;;;-142.75;77.32;77418.78;5010805;28;19917;-77
2021/08/27 04:00:36;;;;;;;;;;;;;;;-142.75;77.46;77418.78;5010257;28;20067;-78
2021/08/27 04:03:01;;;;;;;;;;;;;;;-142.75;77.46;77422.72;5010824;28;20601;-78
2021/08/27 04:05:27;;;;;;;;;;;;;;;-142.75;77.56;77418.78;5079069;28;19922;-76
2021/08/27 04:07:52;;;;;;;;;;;;;;;-142.75;77.48;77428.63;5011085;28;20370;-77
2021/08/27 04:10:19;;;;;;;;;;;;;;;-142.75;77.61;77422.72;5078727;28;19920;-77
2021/08/27 04:12:44;;;;;;;;;;;;;;;-142.75;77.65;77424.69;5084385;28;19913;-77
2021/08/27 04:15:11;;;;;;;;;;;;;;;-142.75;77.43;77416.81;5098707;28;19913;-77
2021/08/27 04:17:36;;;;;;;;;;;;;;;-142.75;77.65;77430.59;5095959;28;20398;-77
2021/08/27 04:20:02;;;;;;;;;;;;;;;-142.75;77.77;77436.50;5095189;28;19972;-78
2021/08/27 04:22:28;;;;;;;;;;;;;;;-142.75;77.97;77440.44;5026502;28;20370;-78
2021/08/27 04:24:53;;;;;;;;;;;;;;;-142.75;78.08;77448.34;5098956;28;20405;-78
2021/08/27 04:27:18;;;;;;;;;;;;;;;-142.75;78.23;77446.34;5098652;28;19917;-77
2021/08/27 04:29:43;;;;;;;;;;;;;;;-142.75;78.09;77436.50;5098444;28;19921;-77
2021/08/27 04:32:09;;;;;;;;;;;;;;;-142.75;78.00;77438.47;5080217;28;19926;-77
2021/08/27 04:34:34;;;;;;;;;;;;;;;-142.75;77.98;77444.38;5021590;28;20383;-77
2021/08/27 04:36:59;;;;;;;;;;;;;;;-142.75;78.04;77444.38;5021253;28;20384;-77
2021/08/27 04:39:24;;;;;;;;;;;;;;;-142.75;78.17;77440.44;5010508;28;19913;-77
2021/08/27 04:41:50;;;;;;;;;;;;;;;-142.75;78.19;77448.34;5009351;28;20353;-77
2021/08/27 04:44:15;;;;;;;;;;;;;;;-142.75;78.30;77448.34;5011009;28;19963;-77
2021/08/27 04:46:40;;;;;;;;;;;;;;;-142.75;78.31;77446.34;5029845;28;19928;-78
2021/08/27 04:49:05;;;;;;;;;;;;;;;-142.75;78.18;77448.34;5029584;28;19925;-77
2021/08/27 04:51:31;;;;;;;;;;;;;;;-142.75;77.85;77458.16;5029592;28;19920;-77
2021/08/27 04:53:56;;;;;;;;;;;;;;;-142.75;77.90;77464.09;5016055;28;19921;-77
2021/08/27 04:56:21;;;;;;;;;;;;;;;-142.75;77.87;77464.09;5097960;28;19916;-77
2021/08/27 04:58:46;;;;;;;;;;;;;;;-142.75;77.99;77471.97;5029479;28;19966;-78
2021/08/27 05:01:12;;;;;;;;;;;;;;;-142.75;78.13;77473.94;5028689;28;21790;-76
2021/08/27 05:03:37;;;;;;;;;;;;;;;-142.75;78.45;77466.03;5029500;28;19920;-77
2021/08/27 05:06:02;;;;;;;;;;;;;;;-142.75;78.68;77464.09;5017780;28;19950;-77
2021/08/27 05:08:27;;;;;;;;;;;;;;;-142.75;78.89;77460.13;5021401;28;20090;-77
2021/08/27 05:10:53;;;;;;;;;;;;;;;-142.75;79.16;77458.16;5081774;28;19913;-77
2021/08/27 05:13:18;;;;;;;;;;;;;;;-142.75;79.14;77454.25;5014799;28;19917;-76
2021/08/27 05:15:43;;;;;;;;;;;;;;;-142.75;79.15;77456.22;5026203;28;19909;-77
2021/08/27 05:18:08;;;;;;;;;;;;;;;-142.75;79.14;77452.25;5097918;28;19913;-77
2021/08/27 05:20:34;;;;;;;;;;;;;;;-142.75;79.16;77448.34;5028657;28;19917;-78
2021/08/27 05:22:59;;;;;;;;;;;;;;;-142.75;79.24;77432.56;5092178;28;19913;-76
2021/08/27 05:25:25;;;;;;;;;;;;;;;-142.75;78.89;77420.75;5077328;28;19917;-77
2021/08/27 05:27:50;;;;;;;;;;;;;;;-142.75;78.49;77405.00;5009413;28;19940;-77
2021/08/27 05:30:18;;;;;;;;;;;;;;;-142.75;77.95;77385.31;5021257;28;19912;-76
2021/08/27 05:32:43;;;;;;;;;;;;;;;-142.75;77.58;77363.66;5027803;28;20484;-78
2021/08/27 05:35:08;;;;;;;;;;;;;;;-142.75;77.13;77326.25;5096330;28;20020;-76
2021/08/27 05:37:33;;;;;;;;;;;;;;;-142.75;76.00;77296.72;5028089;28;19919;-76
2021/08/27 05:39:59;;;;;;;;;;;;;;;-142.75;74.75;77263.25;5027794;28;19917;-75
2021/08/27 05:42:24;;;;;;;;;;;;;;;-142.75;73.49;77214.03;5015665;28;19914;-76
2021/08/27 05:44:49;;;;;;;;;;;;;;;-142.75;72.00;77160.88;5008378;28;19959;-77
2021/08/27 05:47:14;;;;;;;;;;;;;;;-142.75;70.11;77119.53;5017988;28;20008;-78
2021/08/27 05:49:39;;;;;;;;;;;;;;;-142.75;68.68;77076.22;5014165;28;19914;-77
2021/08/27 05:52:05;;;;;;;;;;;;;;;-142.75;67.25;77025.03;5008800;28;19913;-77
2021/08/27 05:54:30;;;;;;;;;;;;;;;-142.75;65.52;76967.94;5011668;28;20013;-77
2021/08/27 05:56:56;;;;;;;;;;;;;;;-142.75;63.38;76904.94;5028065;28;20003;-77
2021/08/27 05:59:21;;;;;;;;;;;;;;;-142.75;61.99;76865.56;5090979;28;19920;-76
2021/08/27 06:01:46;;;;;;;;;;;;;;;-142.75;60.44;76816.34;5008693;28;19913;-77
2021/08/27 06:04:12;;;;;;;;;;;;;;;-142.75;59.32;76763.22;5009376;28;19936;-77
2021/08/27 06:06:37;;;;;;;;;;;;;;;-142.75;58.43;76719.91;5013723;28;19917;-78
2021/08/27 06:09:05;;;;;;;;;;;;;;;-142.75;57.03;76694.31;5013185;28;19936;-77
2021/08/27 06:11:30;;;;;;;;;;;;;;;-142.75;56.51;76672.66;5021818;28;20260;-77
2021/08/27 06:13:55;;;;;;;;;;;;;;;-142.75;55.60;76652.97;5080686;28;19967;-77
2021/08/27 06:16:20;;;;;;;;;;;;;;;-142.75;55.69;76633.28;5089995;28;19939;-76
2021/08/27 06:18:45;;;;;;;;;;;;;;;-142.75;54.74;76615.56;5023402;28;19920;-77
2021/08/27 06:21:12;;;;;;;;;;;;;;;-142.75;54.59;76603.75;5021525;28;20405;-78
2021/08/27 06:23:37;;;;;;;;;;;;;;;-142.75;54.32;76570.28;5015135;28;19913;-78
2021/08/27 06:26:02;;;;;;;;;;;;;;;-142.75;53.69;76538.78;5019168;28;21304;-78
2021/08/27 06:28:27;;;;;;;;;;;;;;;-142.75;52.44;76499.44;5088667;28;19924;-77
2021/08/27 06:30:53;;;;;;;;;;;;;;;-142.75;52.21;76456.13;5019343;28;19913;-77
2021/08/27 06:33:18;;;;;;;;;;;;;;;-142.75;50.49;76389.19;5018701;28;19917;-77
2021/08/27 06:35:43;;;;;;;;;;;;;;;-142.75;49.73;76332.13;5088108;28;19920;-77
2021/08/27 06:38:22;;;;;;;;;;;;;;;-142.75;48.51;76267.16;5021590;28;19960;-76
2021/08/27 06:40:48;;;;;;;;;;;;;;;-142.75;48.06;76231.72;5017538;28;19917;-77
2021/08/27 06:43:13;;;;;;;;;;;;;;;-142.75;47.08;76178.59;5023996;28;19992;-76
2021/08/27 06:45:38;;;;;;;;;;;;;;;-142.75;46.06;76156.94;5017856;28;19963;-77
2021/08/27 06:48:03;;;;;;;;;;;;;;;-142.75;45.45;76125.44;5081674;28;19913;-78
2021/08/27 06:50:29;;;;;;;;;;;;;;;-142.75;44.14;76145.13;5016401;28;19919;-77
2021/08/27 06:52:55;;;;;;;;;;;;;;;-142.75;44.59;76141.19;5084582;28;19922;-77
2021/08/27 06:55:20;;;;;;;;;;;;;;;-142.75;44.98;76119.53;5022060;28;19913;-76
2021/08/27 06:57:45;;;;;;;;;;;;;;;-142.75;44.23;76082.13;5016446;28;20004;-77
2021/08/27 07:00:10;;;;;;;;;;;;;;;-142.75;43.69;76105.75;5089537;28;19921;-76
2021/08/27 07:02:36;;;;;;;;;;;;;;;-142.75;43.74;76121.50;5022267;28;19959;-76
2021/08/27 07:05:01;;;;;;;;;;;;;;;-142.75;44.14;76133.31;5087448;28;20370;-78
2021/08/27 07:07:26;;;;;;;;;;;;;;;-142.75;44.35;76160.88;5018034;28;19920;-76
2021/08/27 07:09:51;;;;;;;;;;;;;;;-142.75;44.85;76172.69;5014058;28;19917;-76
2021/08/27 07:12:16;;;;;;;;;;;;;;;-142.75;45.34;76196.31;5026279;28;19913;-77
2021/08/27 07:14:43;;;;;;;;;;;;;;;-142.75;45.11;76235.66;5019864;28;19952;-78
2021/08/27 07:17:08;;;;;;;;;;;;;;;-142.75;45.41;76253.38;5014448;28;20402;-76
2021/08/27 07:19:34;;;;;;;;;;;;;;;-142.75;46.25;76225.81;5080621;28;19913;-77
2021/08/27 07:21:59;;;;;;;;;;;;;;;-142.75;45.94;76223.84;5017122;28;19913;-76
2021/08/27 07:24:24;;;;;;;;;;;;;;;-142.75;45.28;76212.03;5013176;28;19920;-76
2021/08/27 07:26:49;;;;;;;;;;;;;;;-142.75;45.47;76263.22;5021337;28;19928;-76
2021/08/27 07:29:14;;;;;;;;;;;;;;;-142.75;46.94;76294.72;5024598;28;19913;-77
2021/08/27 07:31:40;;;;;;;;;;;;;;;-142.75;47.69;76296.69;5092335;28;19913;-76
2021/08/27 07:34:05;;;;;;;;;;;;;;;-142.75;47.48;76269.13;5027005;28;20473;-75
2021/08/27 07:36:30;;;;;;;;;;;;;;;-142.75;47.12;76235.66;5020450;28;20394;-75
2021/08/27 07:38:55;;;;;;;;;;;;;;;-142.75;45.59;76202.19;5025822;28;19963;-76
2021/08/27 07:41:20;;;;;;;;;;;;;;;-142.75;45.59;76208.09;5091104;28;19921;-76
2021/08/27 07:43:45;;;;;;;;;;;;;;;-142.75;46.07;76215.97;5094890;28;20397;-76
2021/08/27 07:46:11;;;;;;;;;;;;;;;-142.75;46.67;76182.53;5086496;28;19958;-76
2021/08/27 07:48:36;;;;;;;;;;;;;;;-142.75;45.40;76101.81;5091600;28;20330;-76
2021/08/27 07:51:01;;;;;;;;;;;;;;;-142.75;44.27;75975.84;5090320;28;19913;-76
2021/08/27 07:53:26;;;;;;;;;;;;;;;-142.75;42.96;75897.13;5095582;28;19913;-77
2021/08/27 07:55:51;;;;;;;;;;;;;;;-142.75;40.51;75824.31;5030935;28;19965;-77
2021/08/27 07:58:18;;;;;;;;;;;;;;;-142.75;40.95;75720.00;5090910;28;20298;-76
2021/08/27 08:00:43;;;;;;;;;;;;;;;-142.75;39.17;75621.59;5018427;28;20018;-77
2021/08/27 08:03:08;;;;;;;;;;;;;;;-142.75;38.04;75535.00;5091972;28;20418;-78
2021/08/27 08:05:33;;;;;;;;;;;;;;;-142.75;37.34;75474.00;5099688;28;19917;-78
2021/08/27 08:07:58;;;;;;;;;;;;;;;-142.75;35.93;75418.91;5095273;28;20589;-78
2021/08/27 08:10:24;;;;;;;;;;;;;;;-142.75;34.71;75385.44;5093483;28;19913;-78
2021/08/27 08:12:49;;;;;;;;;;;;;;;-142.75;36.15;75474.00;5026642;28;20010;-77
2021/08/27 08:15:15;;;;;;;;;;;;;;;-142.75;36.93;75475.97;5090158;28;19974;-75
2021/08/27 08:17:40;;;;;;;;;;;;;;;-142.75;35.23;75405.13;5091219;28;19965;-76
2021/08/27 08:20:05;;;;;;;;;;;;;;;-142.75;34.70;75434.66;5027204;28;19963;-77
2021/08/27 08:22:31;;;;;;;;;;;;;;;-142.75;34.88;75499.59;5018042;28;19913;-76
2021/08/27 08:24:56;;;;;;;;;;;;;;;-142.75;34.90;75475.97;5088764;28;19917;-76
2021/08/27 08:27:21;;;;;;;;;;;;;;;-142.75;34.63;75393.31;5025209;28;20026;-77
2021/08/27 08:29:46;;;;;;;;;;;;;;;-142.75;33.15;75373.63;5021996;28;20020;-76
2021/08/27 08:32:11;;;;;;;;;;;;;;;-142.75;32.83;75350.03;5026137;28;19919;-77
2021/08/27 08:34:37;;;;;;;;;;;;;;;-142.75;32.90;75340.19;5028000;28;19914;-77
2021/08/27 08:37:02;;;;;;;;;;;;;;;-142.75;33.37;75296.88;5018032;28;19914;-77
2021/08/27 08:39:27;;;;;;;;;;;;;;;-142.75;32.91;75202.44;5090747;28;20355;-77
2021/08/27 08:41:53;;;;;;;;;;;;;;;-142.75;32.14;75261.47;5008292;28;19913;-77
2021/08/27 08:44:18;;;;;;;;;;;;;;;-142.75;32.02;75334.28;5018811;28;19917;-76
2021/08/27 08:46:45;;;;;;;;;;;;;;;-142.75;32.10;75420.88;5016827;28;19913;-76
2021/08/27 08:49:12;;;;;;;;;;;;;;;-142.75;32.61;75515.31;5016795;28;19913;-77
2021/08/27 08:51:38;;;;;;;;;;;;;;;-142.75;33.62;75513.38;5016307;28;20392;-75
2021/08/27 08:54:03;;;;;;;;;;;;;;;-142.75;33.92;75660.97;5080234;28;19982;-76
2021/08/27 08:56:28;;;;;;;;;;;;;;;-142.75;35.08;75822.34;5010874;28;19929;-76
2021/08/27 08:58:56;;;;;;;;;;;;;;;-142.75;36.96;75899.09;5094260;28;20282;-77
2021/08/27 09:01:22;;;;;;;;;;;;;;;-142.75;37.21;75944.38;5013384;28;19917;-76
2021/08/27 09:03:47;;;;;;;;;;;;;;;-142.75;38.21;75975.84;5088349;28;19919;-76
2021/08/27 09:06:13;;;;;;;;;;;;;;;-142.75;37.83;75991.59;5076872;28;19921;-77
2021/08/27 09:08:43;;;;;;;;;;;;;;;-142.75;38.34;75995.53;5017334;28;20334;-77
2021/08/27 09:11:15;;;;;;;;;;;;;;;-142.75;38.71;76040.81;5027060;28;19913;-76
2021/08/27 09:13:41;;;;;;;;;;;;;;;-142.75;39.71;76042.78;5090255;28;19918;-76
2021/08/27 09:16:07;;;;;;;;;;;;;;;-142.75;38.91;75971.91;5015542;28;20616;-77
2021/08/27 09:18:39;;;;;;;;;;;;;;;-142.75;39.52;76099.84;5013552;28;19922;-76
2021/08/27 09:21:24;;;;;;;;;;;;;;;-142.75;40.81;76170.72;5020279;28;19925;-76
2021/08/27 09:23:49;;;;;;;;;;;;;;;-142.75;41.75;76225.81;5082923;28;19920;-76
2021/08/27 09:26:47;;;;;;;;;;;;;;;-142.75;42.70;76298.66;5088923;28;19913;-75
2021/08/27 09:29:30;;;;;;;;;;;;;;;-142.75;43.70;76334.09;5035001;28;19916;-75
2021/08/27 09:31:55;;;;;;;;;;;;;;;-142.75;45.53;76355.72;5091011;28;19917;-76
2021/08/27 09:34:25;;;;;;;;;;;;;;;-142.75;46.38;76359.66;5084593;28;19920;-77
2021/08/27 09:36:55;;;;;;;;;;;;;;;-142.75;45.74;76341.97;5086753;28;19917;-77
2021/08/27 09:39:30;;;;;;;;;;;;;;;-142.75;45.73;76326.22;5022756;28;19916;-75
2021/08/27 09:41:56;;;;;;;;;;;;;;;-142.75;45.65;76341.97;5076648;28;20397;-77
2021/08/27 09:44:22;;;;;;;;;;;;;;;-142.75;45.98;76296.69;5015375;28;20430;-77
2021/08/27 09:46:47;;;;;;;;;;;;;;;-142.75;44.49;76223.84;5016594;28;19913;-76
2021/08/27 09:49:25;;;;;;;;;;;;;;;-142.75;42.21;76017.19;5020198;28;19937;-77
2021/08/27 09:51:50;;;;;;;;;;;;;;;-142.75;39.40;75798.72;5012096;28;19921;-76
2021/08/27 09:54:21;;;;;;;;;;;;;;;-142.75;36.60;75775.09;5083218;28;19939;-76
2021/08/27 09:56:48;;;;;;;;;;;;;;;-142.75;37.28;75942.41;5076433;28;19913;-75
2021/08/27 09:59:13;;;;;;;;;;;;;;;-142.75;38.40;75987.66;5018819;28;19916;-75
2021/08/27 10:01:48;;;;;;;;;;;;;;;-142.75;38.63;75887.28;5082905;28;20062;-76
2021/08/27 10:04:15;;;;;;;;;;;;;;;-142.75;36.95;75680.63;5028229;28;19913;-78
2021/08/27 10:06:40;;;;;;;;;;;;;;;-142.75;34.84;75519.25;5014824;28;19913;-76
2021/08/27 10:09:05;;;;;;;;;;;;;;;-142.75;32.91;75462.19;5078965;28;19920;-77
2021/08/27 10:11:31;;;;;;;;;;;;;;;-142.75;32.63;75430.72;5096078;28;19917;-76
2021/08/27 10:13:57;;;;;;;;;;;;;;;-142.75;31.68;75353.97;5025626;28;19913;-77
2021/08/27 10:16:22;;;;;;;;;;;;;;;-142.75;32.20;75361.84;5021851;28;19913;-76
2021/08/27 10:18:47;;;;;;;;;;;;;;;-142.75;31.29;75239.81;5082966;28;19925;-77
2021/08/27 10:21:13;;;;;;;;;;;;;;;-142.75;31.46;75418.91;5018112;28;19932;-76
2021/08/27 10:23:38;;;;;;;;;;;;;;;-142.75;33.48;75582.25;5085923;28;19987;-76
2021/08/27 10:26:11;;;;;;;;;;;;;;;-142.75;34.68;75666.88;5018083;28;19916;-76
2021/08/27 10:28:37;;;;;;;;;;;;;;;-142.75;35.17;75818.41;5075736;28;19913;-76
2021/08/27 10:31:03;;;;;;;;;;;;;;;-142.75;36.48;75936.50;5088251;28;19917;-76
2021/08/27 10:33:40;;;;;;;;;;;;;;;-142.75;38.01;75975.84;5078372;28;19966;-76
2021/08/27 10:36:29;;;;;;;;;;;;;;;-142.75;36.28;75747.56;5080227;28;20020;-77
2021/08/27 10:38:55;;;;;;;;;;;;;;;-142.75;34.34;75572.41;5015352;28;19913;-77
2021/08/27 10:41:30;;;;;;;;;;;;;;;-142.75;33.59;75479.91;5013205;28;19925;-77
2021/08/27 10:44:01;;;;;;;;;;;;;;;-142.75;32.39;75383.47;5093445;28;19919;-77
2021/08/27 10:46:47;;;;;;;;;;;;;;;-142.75;31.98;75294.94;5017394;28;19921;-77
2021/08/27 10:49:17;;;;;;;;;;;;;;;-142.75;31.14;75377.56;5017424;28;19945;-77
2021/08/27 10:51:44;;;;;;;;;;;;;;;-142.75;32.80;75582.25;5107130;27;20446;-77
2021/08/27 10:54:11;;;;;;;;;;;;;;;-142.75;33.01;75529.09;5084762;28;20499;-76
2021/08/27 10:56:53;;;;;;;;;;;;;;;-142.75;31.82;75483.84;5092182;28;19913;-76
2021/08/27 10:59:33;;;;;;;;;;;;;;;-142.75;32.87;75472.03;5076769;28;19920;-77
2021/08/27 11:01:58;;;;;;;;;;;;;;;-142.75;32.68;75546.81;5089001;28;19961;-76
2021/08/27 11:04:25;;;;;;;;;;;;;;;-142.75;33.14;75505.50;5095020;28;19913;-76
2021/08/27 11:06:50;;;;;;;;;;;;;;;-142.75;32.66;75385.44;5028535;28;19940;-79
2021/08/27 11:09:17;;;;;;;;;;;;;;;-142.75;32.65;75409.06;5085850;28;19917;-77
2021/08/27 11:11:43;;;;;;;;;;;;;;;-142.75;34.58;75664.91;5095996;28;19917;-79
2021/08/27 11:14:19;;;;;;;;;;;;;;;-142.75;35.62;75851.88;5028028;28;20431;-77
2021/08/27 11:16:53;;;;;;;;;;;;;;;-142.75;35.88;75881.38;5087276;28;19913;-77
2021/08/27 11:19:37;;;;;;;;;;;;;;;-142.75;37.11;75820.38;5008364;28;20150;-76
2021/08/27 11:22:19;;;;;;;;;;;;;;;-142.75;37.01;75830.22;5013877;28;20374;-76
2021/08/27 11:25:13;;;;;;;;;;;;;;;-142.75;38.70;75916.81;5024356;28;19936;-77
2021/08/27 11:27:38;;;;;;;;;;;;;;;-142.75;36.43;75834.16;5015861;28;19913;-76
2021/08/27 11:30:23;;;;;;;;;;;;;;;-142.75;36.60;75706.22;5079146;28;19920;-78
2021/08/27 11:32:48;;;;;;;;;;;;;;;-142.75;35.66;75631.44;5092966;28;20774;-78
2021/08/27 11:35:13;;;;;;;;;;;;;;;-142.75;34.20;75725.91;5082914;28;20028;-76
2021/08/27 11:37:39;;;;;;;;;;;;;;;-142.75;34.55;75723.94;5023504;28;20008;-78
2021/08/27 11:40:05;;;;;;;;;;;;;;;-142.75;34.51;75712.13;5009047;28;20004;-79
2021/08/27 11:42:31;;;;;;;;;;;;;;;-142.75;35.00;75666.88;5021034;28;19913;-77
2021/08/27 11:45:03;;;;;;;;;;;;;;;-142.75;36.32;75865.63;5022083;28;19920;-77
2021/08/27 11:47:31;;;;;;;;;;;;;;;-142.75;38.24;75899.09;5085666;28;20302;-76
2021/08/27 11:49:58;;;;;;;;;;;;;;;-142.75;38.59;75912.88;5092125;28;19913;-77
2021/08/27 11:52:27;;;;;;;;;;;;;;;-142.75;38.72;75964.03;5015778;28;20425;-77
2021/08/27 11:55:19;;;;;;;;;;;;;;;-142.75;38.79;75950.28;5008809;28;19957;-77
2021/08/27 11:57:54;;;;;;;;;;;;;;;-142.75;40.04;75952.25;5027244;28;20007;-78
2021/08/27 12:00:20;;;;;;;;;;;;;;;-142.75;40.06;76021.13;5011310;28;20012;-77
2021/08/27 12:02:50;;;;;;;;;;;;;;;-142.75;40.72;76029.00;5106526;22;19936;-77
2021/08/27 12:05:15;;;;;;;;;;;;;;;-142.75;40.96;76156.94;5003202;28;20365;-77
2021/08/27 12:07:54;;;;;;;;;;;;;;;-142.75;42.45;76208.09;5020722;28;19917;-77
2021/08/27 12:10:20;;;;;;;;;;;;;;;-142.75;42.89;76259.28;5021020;28;19956;-77
2021/08/27 12:12:46;;;;;;;;;;;;;;;-142.75;43.46;76214.00;5101779;28;19928;-76
2021/08/27 12:15:16;;;;;;;;;;;;;;;-142.75;42.22;76174.66;5027605;28;19917;-78
2021/08/27 12:18:00;;;;;;;;;;;;;;;-142.75;41.43;76215.97;5088467;28;19973;-76
2021/08/27 12:20:27;;;;;;;;;;;;;;;-142.75;43.21;76310.47;5022574;28;19918;-77
2021/08/27 12:23:01;;;;;;;;;;;;;;;-142.75;43.83;76367.53;5026687;28;19912;-77
2021/08/27 12:25:29;;;;;;;;;;;;;;;-142.75;45.22;76389.19;5019188;28;20382;-76
2021/08/27 12:27:54;;;;;;;;;;;;;;;-142.75;47.21;76412.81;5031080;28;19928;-77